createdAt,value
2023-10-02T00:02:39.340Z,13.93
2023-10-02T00:05:08.977Z,15.40
2023-10-02T00:07:38.497Z,14.18
2023-10-02T00:10:06.866Z,14.35
2023-10-02T00:12:36.275Z,15.52
2023-10-02T00:15:13.479Z,20.05
2023-10-02T00:17:46.120Z,18.38
2023-10-02T00:20:22.728Z,16.75
2023-10-02T00:22:53.872Z,12.43
2023-10-02T00:25:23.604Z,13.63
2023-10-02T00:27:53.801Z,16.33
2023-10-02T00:30:23.796Z,11.02
2023-10-02T00:32:53.115Z,15.75
2023-10-02T00:35:23.807Z,21.17
2023-10-02T00:37:56.722Z,20.55
2023-10-02T00:40:30.103Z,17.98
2023-10-02T00:43:00.825Z,13.95
2023-10-02T00:45:31.224Z,15.52
2023-10-02T00:48:17.870Z,16.50
2023-10-02T00:50:55.722Z,17.45
2023-10-02T00:53:40.820Z,20.65
2023-10-02T00:56:22.719Z,17.27
2023-10-02T00:59:16.336Z,19.55
2023-10-02T01:01:43.684Z,14.48
2023-10-02T01:04:12.308Z,13.18
2023-10-02T01:07:18.325Z,20.05
2023-10-02T01:10:06.098Z,25.40
2023-10-02T01:12:44.618Z,17.65
2023-10-02T01:15:13.433Z,26.33
2023-10-02T01:17:51.611Z,17.30
2023-10-02T01:20:22.900Z,19.65
2023-10-02T01:22:53.924Z,13.45
2023-10-02T01:25:25.075Z,13.52
2023-10-02T01:27:56.877Z,21.55
2023-10-02T01:33:13.568Z,16.85
2023-10-02T01:35:49.782Z,18.48
2023-10-02T01:38:32.065Z,16.70
2023-10-02T01:41:09.753Z,18.88
2023-10-02T01:43:45.602Z,17.77
2023-10-02T01:46:20.157Z,19.27
2023-10-02T01:48:50.402Z,17.38
2023-10-02T01:51:27.440Z,13.65
2023-10-02T01:54:17.072Z,14.77
2023-10-02T01:56:48.421Z,10.85
2023-10-02T01:59:21.009Z,17.70
2023-10-02T02:01:58.793Z,16.20
2023-10-02T02:04:34.965Z,16.95
2023-10-02T02:07:03.824Z,15.75
2023-10-02T02:09:34.553Z,13.40
2023-10-02T02:12:07.270Z,15.63
2023-10-02T02:14:54.251Z,16.88
2023-10-02T02:17:27.472Z,18.15
2023-10-02T02:20:12.596Z,17.13
2023-10-02T02:22:40.228Z,15.80
2023-10-02T02:25:07.822Z,19.65
2023-10-02T02:27:35.034Z,18.38
2023-10-02T02:30:11.753Z,14.63
2023-10-02T02:32:45.875Z,19.48
2023-10-02T02:35:16.532Z,15.52
2023-10-02T02:37:45.408Z,17.17
2023-10-02T02:40:27.250Z,13.75
2023-10-02T02:42:57.999Z,17.25
2023-10-02T02:45:31.260Z,21.55
2023-10-02T02:48:08.830Z,14.40
2023-10-02T02:50:43.946Z,12.73
2023-10-02T02:53:24.124Z,12.82
2023-10-02T02:56:31.751Z,16.70
2023-10-02T02:58:59.701Z,13.23
2023-10-02T03:01:30.993Z,14.70
2023-10-02T03:04:01.008Z,19.27
2023-10-02T03:06:29.091Z,14.48
2023-10-02T03:08:59.268Z,16.83
2023-10-02T03:11:30.534Z,19.38
2023-10-02T03:14:18.326Z,18.40
2023-10-02T03:16:47.246Z,18.73
2023-10-02T03:19:17.702Z,16.08
2023-10-02T03:21:45.028Z,14.30
2023-10-02T03:24:20.493Z,14.80
2023-10-02T03:26:54.460Z,15.10
2023-10-02T03:29:23.851Z,15.15
2023-10-02T03:31:52.621Z,12.63
2023-10-02T03:34:36.031Z,16.98
2023-10-02T03:37:15.811Z,12.35
2023-10-02T03:40:02.961Z,12.10
2023-10-02T03:42:37.608Z,16.95
2023-10-02T03:45:06.415Z,15.75
2023-10-02T03:47:37.660Z,17.52
2023-10-02T03:50:14.064Z,16.30
2023-10-02T03:52:47.197Z,15.07
2023-10-02T03:55:17.042Z,26.25
2023-10-02T03:57:57.032Z,14.25
2023-10-02T04:00:29.401Z,14.18
2023-10-02T04:02:59.090Z,20.20
2023-10-02T04:05:45.774Z,14.75
2023-10-02T04:08:23.894Z,15.88
2023-10-02T04:10:58.496Z,16.73
2023-10-02T04:13:33.444Z,14.73
2023-10-02T04:16:20.835Z,19.80
2023-10-02T04:18:48.161Z,14.15
2023-10-02T04:21:21.237Z,18.73
2023-10-02T04:23:48.289Z,13.20
2023-10-02T04:26:21.192Z,12.50
2023-10-02T04:29:11.838Z,14.50
2023-10-02T04:31:42.740Z,13.05
2023-10-02T04:34:17.323Z,15.68
2023-10-02T04:36:45.423Z,20.35
2023-10-02T04:39:32.819Z,14.00
2023-10-02T04:42:11.511Z,17.70
2023-10-02T04:44:49.053Z,19.73
2023-10-02T04:47:21.158Z,16.40
2023-10-02T04:50:05.620Z,15.60
2023-10-02T04:52:55.338Z,15.52
2023-10-02T04:55:26.108Z,15.75
2023-10-02T04:58:04.201Z,14.32
2023-10-02T05:00:34.491Z,13.00
2023-10-02T05:03:25.460Z,15.80
2023-10-02T05:05:56.951Z,21.02
2023-10-02T05:08:35.210Z,14.63
2023-10-02T05:11:07.795Z,16.77
2023-10-02T05:13:46.718Z,15.60
2023-10-02T05:16:14.405Z,17.27
2023-10-02T05:18:48.728Z,16.15
2023-10-02T05:21:18.849Z,17.75
2023-10-02T05:24:01.830Z,14.30
2023-10-02T05:26:40.684Z,18.08
2023-10-02T05:29:11.359Z,14.70
2023-10-02T05:31:42.547Z,19.35
2023-10-02T05:34:23.932Z,11.80
2023-10-02T05:37:04.627Z,16.17
2023-10-02T05:39:41.498Z,13.07
2023-10-02T05:42:15.918Z,12.32
2023-10-02T05:44:45.662Z,24.35
2023-10-02T05:47:17.162Z,20.52
2023-10-02T05:49:49.532Z,16.85
2023-10-02T05:52:22.183Z,14.50
2023-10-02T05:54:55.280Z,16.35
2023-10-02T05:57:33.642Z,13.50
2023-10-02T06:00:01.759Z,20.65
2023-10-02T06:02:29.471Z,22.52
2023-10-02T06:05:08.941Z,23.85
2023-10-02T06:07:45.564Z,16.55
2023-10-02T06:10:28.066Z,19.50
2023-10-02T06:13:05.183Z,17.20
2023-10-02T06:15:49.653Z,17.40
2023-10-02T06:18:28.756Z,13.90
2023-10-02T06:21:02.468Z,20.58
2023-10-02T06:23:38.777Z,17.23
2023-10-02T06:26:12.207Z,12.50
2023-10-02T06:28:40.718Z,16.27
2023-10-02T06:31:08.189Z,18.23
2023-10-02T06:33:39.652Z,17.65
2023-10-02T06:36:10.694Z,21.50
2023-10-02T06:38:38.031Z,17.63
2023-10-02T06:41:16.797Z,25.05
2023-10-02T06:43:43.944Z,17.13
2023-10-02T06:46:17.301Z,24.02
2023-10-02T06:48:45.158Z,17.67
2023-10-02T06:51:16.097Z,23.88
2023-10-02T06:53:44.706Z,17.10
2023-10-02T06:56:14.651Z,17.85
2023-10-02T06:58:55.901Z,14.85
2023-10-02T07:01:28.622Z,17.17
2023-10-02T07:03:58.096Z,16.20
2023-10-02T07:06:26.044Z,19.48
2023-10-02T07:09:13.538Z,14.02
2023-10-02T07:11:45.121Z,19.00
2023-10-02T07:14:12.700Z,13.05
2023-10-02T07:16:40.132Z,12.50
2023-10-02T07:19:08.065Z,12.80
2023-10-02T07:21:37.068Z,15.18
2023-10-02T07:24:05.503Z,16.77
2023-10-02T07:26:52.799Z,17.02
2023-10-02T07:29:20.865Z,15.68
2023-10-02T07:31:48.769Z,16.75
2023-10-02T07:34:17.740Z,19.50
2023-10-02T07:36:47.700Z,15.02
2023-10-02T07:39:38.723Z,13.27
2023-10-02T07:42:10.695Z,17.15
2023-10-02T07:44:40.389Z,14.85
2023-10-02T07:47:12.041Z,14.48
2023-10-02T07:49:41.334Z,13.43
2023-10-02T07:52:13.208Z,15.27
2023-10-02T07:54:45.906Z,18.60
2023-10-02T07:57:15.886Z,13.27
2023-10-02T07:59:44.672Z,20.38
2023-10-02T08:02:38.731Z,13.98
2023-10-02T08:05:06.651Z,11.23
2023-10-02T08:07:37.442Z,18.30
2023-10-02T08:10:12.072Z,11.65
2023-10-02T08:12:55.932Z,15.57
2023-10-02T08:15:34.244Z,15.18
2023-10-02T08:18:05.380Z,15.25
2023-10-02T08:20:33.631Z,16.50
2023-10-02T08:23:03.563Z,15.75
2023-10-02T08:25:34.580Z,16.38
2023-10-02T08:28:01.683Z,14.85
2023-10-02T08:30:33.039Z,13.98
2023-10-02T08:33:12.602Z,17.20
2023-10-02T08:35:54.127Z,12.57
2023-10-02T08:38:24.515Z,11.90
2023-10-02T08:41:04.648Z,18.60
2023-10-02T08:43:45.580Z,9.82
2023-10-02T08:46:20.489Z,11.02
2023-10-02T08:48:56.275Z,9.88
2023-10-02T08:51:30.443Z,11.95
2023-10-02T08:54:06.683Z,14.30
2023-10-02T08:56:45.095Z,14.27
2023-10-02T08:59:29.022Z,10.30
2023-10-02T09:02:18.267Z,12.57
2023-10-02T09:05:11.597Z,13.40
2023-10-02T09:07:58.096Z,10.45
2023-10-02T09:10:28.087Z,12.10
2023-10-02T09:13:11.572Z,10.95
2023-10-02T09:15:38.721Z,11.90
2023-10-02T09:18:23.760Z,13.82
2023-10-02T09:20:55.692Z,11.57
2023-10-02T09:23:26.306Z,11.90
2023-10-02T09:26:26.729Z,6.55
2023-10-02T09:29:02.924Z,13.20
2023-10-02T09:31:36.416Z,15.15
2023-10-02T09:34:41.951Z,13.77
2023-10-02T09:37:52.100Z,12.48
2023-10-02T09:40:02.035Z,11.25
2023-10-02T09:42:34.622Z,8.70
2023-10-02T09:45:10.692Z,11.20
2023-10-02T09:47:47.750Z,10.27
2023-10-02T09:50:31.251Z,11.68
2023-10-02T09:53:10.317Z,12.85
2023-10-02T09:56:07.780Z,8.38
2023-10-02T09:59:14.155Z,12.80
2023-10-02T10:01:41.695Z,7.97
2023-10-02T10:04:28.771Z,12.65
2023-10-02T10:07:10.987Z,9.60
2023-10-02T10:09:54.686Z,7.88
2023-10-02T10:12:56.073Z,7.50
2023-10-02T10:15:27.869Z,8.70
2023-10-02T10:17:57.943Z,13.45
2023-10-02T10:20:28.923Z,10.45
2023-10-02T10:22:56.803Z,8.35
2023-10-02T10:25:24.524Z,8.52
2023-10-02T10:27:56.255Z,7.60
2023-10-02T10:30:26.457Z,5.43
2023-10-02T10:33:15.429Z,8.85
2023-10-02T10:35:51.246Z,7.85
2023-10-02T10:38:28.140Z,7.13
2023-10-02T10:41:03.384Z,7.20
2023-10-02T10:43:51.212Z,10.30
2023-10-02T10:46:18.298Z,8.00
2023-10-02T10:49:09.986Z,6.38
2023-10-02T10:51:40.941Z,6.30
2023-10-02T10:54:14.781Z,8.25
2023-10-02T10:56:57.160Z,7.78
2023-10-02T10:59:26.264Z,9.18
2023-10-02T11:02:11.314Z,8.27
2023-10-02T11:04:41.797Z,7.18
2023-10-02T11:07:21.144Z,7.13
2023-10-02T11:10:16.321Z,11.60
2023-10-02T11:12:57.991Z,3.63
2023-10-02T11:15:47.827Z,11.38
2023-10-02T11:18:24.664Z,7.72
2023-10-02T11:20:58.511Z,5.07
2023-10-02T11:23:41.802Z,5.68
2023-10-02T11:26:13.964Z,4.63
2023-10-02T11:28:44.235Z,7.13
2023-10-02T11:31:33.487Z,10.65
2023-10-02T11:36:54.259Z,5.40
2023-10-02T11:39:21.819Z,7.55
2023-10-02T11:41:49.311Z,8.73
2023-10-02T11:44:16.767Z,7.50
2023-10-02T11:46:47.518Z,6.05
2023-10-02T11:49:14.605Z,11.60
2023-10-02T11:51:42.585Z,10.25
2023-10-02T11:54:15.221Z,11.30
2023-10-02T11:56:44.689Z,8.15
2023-10-02T11:59:16.122Z,9.75
2023-10-02T12:01:48.140Z,8.55
2023-10-02T12:04:16.377Z,10.02
2023-10-02T12:06:43.759Z,7.95
2023-10-02T12:09:19.454Z,7.07
2023-10-02T12:11:46.976Z,8.55
2023-10-02T12:14:14.195Z,9.30
2023-10-02T12:16:42.294Z,7.25
2023-10-02T12:19:11.884Z,7.38
2023-10-02T12:21:39.102Z,11.77
2023-10-02T12:24:08.827Z,5.38
2023-10-02T12:26:36.280Z,4.28
2023-10-02T12:29:04.006Z,6.38
2023-10-02T12:31:35.394Z,7.32
2023-10-02T12:34:02.534Z,5.10
2023-10-02T12:36:30.048Z,12.10
2023-10-02T12:38:58.910Z,8.25
2023-10-02T12:41:32.185Z,7.18
2023-10-02T12:43:59.903Z,8.25
2023-10-02T12:46:33.633Z,7.57
2023-10-02T12:49:02.121Z,8.68
2023-10-02T12:51:31.401Z,7.03
2023-10-02T12:53:58.528Z,8.27
2023-10-02T12:56:25.847Z,12.90
2023-10-02T12:58:56.485Z,10.95
2023-10-02T13:01:28.441Z,7.88
2023-10-02T13:03:57.247Z,10.15
2023-10-02T13:06:27.860Z,10.07
2023-10-02T13:09:02.918Z,9.52
2023-10-02T13:11:30.502Z,9.15
2023-10-02T13:13:57.637Z,13.15
2023-10-02T13:16:25.537Z,11.15
2023-10-02T13:18:52.799Z,13.23
2023-10-02T13:21:20.384Z,11.73
2023-10-02T13:23:50.118Z,10.13
2023-10-02T13:26:17.987Z,8.98
2023-10-02T13:28:53.659Z,11.23
2023-10-02T13:31:21.218Z,8.77
2023-10-02T13:33:53.174Z,6.90
2023-10-02T13:36:23.612Z,7.75
2023-10-02T13:38:51.711Z,6.82
2023-10-02T13:41:20.233Z,5.85
2023-10-02T13:43:50.870Z,8.10
2023-10-02T13:46:18.494Z,7.53
2023-10-02T13:48:46.444Z,7.70
2023-10-02T13:51:15.144Z,9.27
2023-10-02T13:53:43.325Z,7.72
2023-10-02T13:56:19.675Z,7.50
2023-10-02T13:58:49.542Z,6.28
2023-10-02T14:01:21.006Z,9.73
2023-10-02T14:03:51.446Z,8.05
2023-10-02T14:06:21.466Z,12.70
2023-10-02T14:08:50.987Z,10.43
2023-10-02T14:11:24.017Z,7.95
2023-10-02T14:13:52.908Z,8.30
2023-10-02T14:16:22.489Z,7.68
2023-10-02T14:18:53.572Z,5.03
2023-10-02T14:21:22.928Z,10.35
2023-10-02T14:23:53.922Z,6.13
2023-10-02T14:26:25.986Z,6.47
2023-10-02T14:28:54.714Z,11.23
2023-10-02T14:31:33.025Z,9.48
2023-10-02T14:34:02.446Z,4.80
2023-10-02T14:36:30.757Z,4.70
2023-10-02T14:38:59.815Z,5.93
2023-10-02T14:41:28.857Z,8.10
2023-10-02T14:43:58.515Z,5.80
2023-10-02T14:46:25.939Z,9.73
2023-10-02T14:48:54.652Z,7.10
2023-10-02T14:51:23.810Z,6.32
2023-10-02T14:53:51.137Z,6.60
2023-10-02T14:56:18.194Z,7.72
2023-10-02T14:58:48.973Z,8.02
2023-10-02T15:01:19.239Z,7.25
2023-10-02T15:03:49.295Z,5.93
2023-10-02T15:06:16.815Z,12.30
2023-10-02T15:08:43.957Z,7.15
2023-10-02T15:11:16.690Z,5.18
2023-10-02T15:13:44.549Z,6.97
2023-10-02T15:16:16.920Z,7.63
2023-10-02T15:18:47.495Z,10.38
2023-10-02T15:21:18.118Z,10.23
2023-10-02T15:23:46.121Z,10.48
2023-10-02T15:26:13.278Z,7.35
2023-10-02T15:28:40.785Z,20.38
2023-10-02T15:31:09.053Z,6.50
2023-10-02T15:33:37.952Z,8.55
2023-10-02T15:36:05.837Z,9.52
2023-10-02T15:38:33.121Z,8.00
2023-10-02T15:41:05.078Z,10.30
2023-10-02T15:43:32.832Z,8.50
2023-10-02T15:46:00.503Z,5.15
2023-10-02T15:48:27.905Z,6.75
2023-10-02T15:50:55.664Z,16.77
2023-10-02T15:53:25.624Z,9.07
2023-10-02T15:55:53.450Z,9.02
2023-10-02T15:58:20.622Z,5.07
2023-10-02T16:00:50.752Z,5.97
2023-10-02T16:03:18.356Z,4.63
2023-10-02T16:05:48.144Z,6.68
2023-10-02T16:08:15.486Z,11.85
2023-10-02T16:10:42.637Z,6.18
2023-10-02T16:13:09.843Z,9.60
2023-10-02T16:15:37.091Z,10.80
2023-10-02T16:18:07.102Z,6.97
2023-10-02T16:20:36.424Z,12.40
2023-10-02T16:23:03.788Z,10.02
2023-10-02T16:25:32.676Z,21.30
2023-10-02T16:28:01.475Z,15.85
2023-10-02T16:30:28.844Z,11.88
2023-10-02T16:32:56.809Z,10.43
2023-10-02T16:35:32.287Z,10.45
2023-10-02T16:38:03.564Z,10.98
2023-10-02T16:40:33.382Z,7.70
2023-10-02T16:43:06.972Z,10.48
2023-10-02T16:45:34.496Z,9.40
2023-10-02T16:48:04.029Z,7.20
2023-10-02T16:50:32.644Z,7.35
2023-10-02T16:52:59.984Z,11.30
2023-10-02T16:55:28.793Z,4.18
2023-10-02T16:57:57.773Z,22.42
2023-10-02T17:00:26.865Z,9.32
2023-10-02T17:02:54.652Z,7.63
2023-10-02T17:05:21.970Z,11.00
2023-10-02T17:07:51.757Z,6.80
2023-10-02T17:10:23.696Z,10.65
2023-10-02T17:12:55.438Z,9.48
2023-10-02T17:15:23.336Z,4.80
2023-10-02T17:17:51.292Z,9.95
2023-10-02T17:20:22.433Z,9.70
2023-10-02T17:22:51.129Z,8.38
2023-10-02T17:25:27.786Z,10.90
2023-10-02T17:28:02.318Z,8.68
2023-10-02T17:30:32.843Z,8.20
2023-10-02T17:33:03.339Z,14.65
2023-10-02T17:35:30.945Z,9.57
2023-10-02T17:37:58.360Z,13.10
2023-10-02T17:40:25.925Z,6.20
2023-10-02T17:42:56.971Z,7.88
2023-10-02T17:45:24.260Z,10.60
2023-10-02T17:47:51.960Z,12.10
2023-10-02T17:50:22.512Z,11.60
2023-10-02T17:52:50.723Z,10.35
2023-10-02T17:55:17.947Z,11.60
2023-10-02T17:57:46.813Z,8.75
2023-10-02T18:00:15.395Z,22.50
2023-10-02T18:02:42.985Z,10.68
2023-10-02T18:05:11.868Z,11.20
2023-10-02T18:07:40.160Z,19.38
2023-10-02T18:10:10.107Z,18.30
2023-10-02T18:12:37.606Z,15.40
2023-10-02T18:15:10.454Z,11.05
2023-10-02T18:17:38.445Z,10.70
2023-10-02T18:20:06.624Z,11.10
2023-10-02T18:22:34.005Z,15.75
2023-10-02T18:25:04.799Z,10.52
2023-10-02T18:27:33.468Z,9.25
2023-10-02T18:30:00.578Z,9.50
2023-10-02T18:32:28.289Z,7.85
2023-10-02T18:34:55.662Z,11.02
2023-10-02T18:37:23.022Z,11.02
2023-10-02T18:39:50.273Z,12.07
2023-10-02T18:42:19.362Z,12.77
2023-10-02T18:44:47.000Z,9.68
2023-10-02T18:47:21.381Z,10.82
2023-10-02T18:49:52.069Z,13.93
2023-10-02T18:52:19.316Z,9.82
2023-10-02T18:54:46.616Z,6.25
2023-10-02T18:57:15.068Z,9.35
2023-10-02T18:59:42.455Z,13.65
2023-10-02T19:02:10.635Z,10.13
2023-10-02T19:04:37.991Z,8.07
2023-10-02T19:07:05.189Z,10.95
2023-10-02T19:09:32.298Z,7.38
2023-10-02T19:11:59.534Z,8.23
2023-10-02T19:14:27.208Z,10.18
2023-10-02T19:16:54.420Z,7.97
2023-10-02T19:19:21.731Z,12.77
2023-10-02T19:21:48.899Z,15.10
2023-10-02T19:24:16.074Z,8.02
2023-10-02T19:26:43.626Z,10.18
2023-10-02T19:29:11.065Z,10.10
2023-10-02T19:31:38.462Z,8.93
2023-10-02T19:34:06.450Z,12.02
2023-10-02T19:36:34.569Z,10.38
2023-10-02T19:39:05.782Z,9.32
2023-10-02T19:41:33.601Z,13.07
2023-10-02T19:44:00.936Z,9.30
2023-10-02T19:46:29.061Z,7.85
2023-10-02T19:48:56.175Z,10.35
2023-10-02T19:51:24.752Z,12.30
2023-10-02T19:53:53.866Z,12.23
2023-10-02T19:56:21.348Z,14.90
2023-10-02T19:58:48.592Z,11.38
2023-10-02T20:01:15.813Z,14.70
2023-10-02T20:03:43.006Z,8.00
2023-10-02T20:06:12.021Z,7.57
2023-10-02T20:08:40.571Z,8.65
2023-10-02T20:11:08.290Z,13.30
2023-10-02T20:13:36.647Z,10.50
2023-10-02T20:16:05.169Z,14.90
2023-10-02T20:18:32.495Z,13.82
2023-10-02T20:21:00.046Z,9.55
2023-10-02T20:23:41.165Z,12.95
2023-10-02T20:26:13.307Z,9.38
2023-10-02T20:28:40.630Z,11.00
2023-10-02T20:31:12.439Z,9.25
2023-10-02T20:33:40.661Z,9.00
2023-10-02T20:36:09.269Z,10.52
2023-10-02T20:38:36.514Z,7.97
2023-10-02T20:41:03.806Z,8.43
2023-10-02T20:43:31.097Z,12.23
2023-10-02T20:45:58.365Z,9.95
2023-10-02T20:48:25.539Z,9.50
2023-10-02T20:50:52.747Z,8.98
2023-10-02T20:53:20.037Z,9.65
2023-10-02T20:55:55.423Z,13.43
2023-10-02T20:58:23.976Z,9.50
2023-10-02T21:00:51.402Z,10.23
2023-10-02T21:03:18.599Z,7.88
2023-10-02T21:05:45.981Z,9.90
2023-10-02T21:08:15.253Z,8.68
2023-10-02T21:10:42.576Z,10.25
2023-10-02T21:13:09.834Z,9.00
2023-10-02T21:15:37.152Z,9.82
2023-10-02T21:18:06.762Z,9.02
2023-10-02T21:20:34.813Z,7.15
2023-10-02T21:23:04.400Z,12.07
2023-10-02T21:25:31.450Z,8.95
2023-10-02T21:27:58.689Z,10.30
2023-10-02T21:30:25.838Z,9.80
2023-10-02T21:32:53.255Z,12.30
2023-10-02T21:35:22.246Z,11.75
2023-10-02T21:37:49.328Z,12.02
2023-10-02T21:40:16.742Z,10.65
2023-10-02T21:42:43.916Z,11.52
2023-10-02T21:45:11.599Z,10.77
2023-10-02T21:47:39.016Z,11.68
2023-10-02T21:50:07.140Z,8.65
2023-10-02T21:52:40.792Z,10.82
2023-10-02T21:55:10.934Z,8.70
2023-10-02T21:57:38.315Z,13.40
2023-10-02T22:00:29.577Z,6.57
2023-10-02T22:02:56.892Z,12.27
2023-10-02T22:05:24.336Z,12.52
2023-10-02T22:07:51.586Z,11.95
2023-10-02T22:10:21.138Z,11.80
2023-10-02T22:12:48.932Z,11.98
2023-10-02T22:15:20.995Z,12.18
2023-10-02T22:17:51.847Z,15.65
2023-10-02T22:20:20.236Z,10.60
2023-10-02T22:22:48.219Z,9.48
2023-10-02T22:25:22.013Z,10.02
2023-10-02T22:27:49.651Z,16.60
2023-10-02T22:30:17.215Z,12.57
2023-10-02T22:32:44.537Z,14.40
2023-10-02T22:35:12.733Z,13.95
2023-10-02T22:37:40.478Z,14.57
2023-10-02T22:40:20.882Z,10.40
2023-10-02T22:42:53.204Z,13.40
2023-10-02T22:45:24.869Z,11.07
2023-10-02T22:47:53.927Z,9.65
2023-10-02T22:50:23.252Z,8.90
2023-10-02T22:52:51.997Z,9.30
2023-10-02T22:55:23.360Z,9.63
2023-10-02T22:57:52.444Z,10.38
2023-10-02T23:00:22.081Z,8.30
2023-10-02T23:02:51.825Z,11.05
2023-10-02T23:05:20.569Z,12.73
2023-10-02T23:07:48.848Z,11.43
2023-10-02T23:10:20.334Z,12.02
2023-10-02T23:12:54.033Z,9.25
2023-10-02T23:15:22.560Z,11.30
2023-10-02T23:17:51.782Z,13.13
2023-10-02T23:20:20.068Z,12.38
2023-10-02T23:22:49.825Z,10.35
2023-10-02T23:25:19.826Z,11.45
2023-10-02T23:27:52.647Z,9.48
2023-10-02T23:30:24.422Z,10.25
2023-10-02T23:32:56.027Z,10.38
2023-10-02T23:35:27.471Z,12.40
2023-10-02T23:37:58.367Z,11.13
2023-10-02T23:40:25.954Z,10.23
2023-10-02T23:43:00.282Z,8.55
2023-10-02T23:45:28.990Z,10.10
2023-10-02T23:48:02.210Z,7.22
2023-10-02T23:50:38.503Z,8.38
2023-10-02T23:53:09.388Z,9.57
2023-10-02T23:55:39.537Z,7.28
2023-10-02T23:58:06.763Z,9.90
